createdAt,value
2018-04-17T00:00:09.809Z,9.52
2018-04-17T00:01:09.807Z,9.61
2018-04-17T00:02:09.806Z,9.58
2018-04-17T00:03:09.808Z,9.45
2018-04-17T00:04:09.806Z,9.49
2018-04-17T00:05:09.803Z,9.49
2018-04-17T00:06:09.800Z,9.46
2018-04-17T00:07:09.799Z,9.43
2018-04-17T00:08:09.798Z,9.28
2018-04-17T00:09:09.796Z,9.23
2018-04-17T00:10:09.795Z,9.12
2018-04-17T00:11:09.791Z,9.04
2018-04-17T00:12:09.791Z,9.02
2018-04-17T00:13:09.790Z,8.94
2018-04-17T00:14:09.795Z,8.93
2018-04-17T00:15:09.787Z,8.78
2018-04-17T00:16:09.785Z,8.71
2018-04-17T00:17:09.784Z,8.86
2018-04-17T00:18:09.781Z,8.84
2018-04-17T00:19:09.781Z,8.88
2018-04-17T00:20:09.780Z,8.91
2018-04-17T00:21:09.778Z,8.91
2018-04-17T00:22:09.775Z,8.91
2018-04-17T00:23:09.773Z,8.91
2018-04-17T00:24:09.772Z,8.94
2018-04-17T00:25:09.772Z,8.91
2018-04-17T00:26:09.771Z,8.90
2018-04-17T00:27:09.767Z,8.93
2018-04-17T00:28:09.769Z,8.91
2018-04-17T00:29:09.767Z,8.93
2018-04-17T00:30:09.761Z,8.93
2018-04-17T00:31:09.757Z,8.78
2018-04-17T00:32:09.756Z,8.71
2018-04-17T00:33:09.756Z,8.57
2018-04-17T00:34:09.754Z,8.57
2018-04-17T00:35:09.757Z,8.50
2018-04-17T00:36:09.749Z,8.39
2018-04-17T00:37:09.749Z,8.44
2018-04-17T00:38:09.747Z,8.39
2018-04-17T00:39:09.744Z,8.42
2018-04-17T00:40:09.743Z,8.53
2018-04-17T00:41:09.741Z,8.55
2018-04-17T00:42:09.740Z,8.54
2018-04-17T00:43:09.740Z,8.57
2018-04-17T00:44:09.737Z,8.62
2018-04-17T00:45:09.755Z,8.68
2018-04-17T00:46:09.736Z,8.73
2018-04-17T00:47:09.732Z,8.72
2018-04-17T00:48:09.730Z,8.79
2018-04-17T00:49:09.728Z,8.87
2018-04-17T00:50:09.726Z,8.81
2018-04-17T00:51:09.725Z,8.79
2018-04-17T00:52:09.727Z,8.68
2018-04-17T00:53:09.722Z,8.75
2018-04-17T00:54:09.724Z,8.65
2018-04-17T00:55:09.717Z,8.53
2018-04-17T00:56:09.715Z,8.45
2018-04-17T00:57:09.716Z,8.28
2018-04-17T00:58:09.714Z,8.26
2018-04-17T00:59:09.710Z,8.18
2018-04-17T01:00:09.709Z,8.10
2018-04-17T01:01:09.707Z,8.18
2018-04-17T01:02:09.705Z,8.20
2018-04-17T01:03:09.706Z,8.22
2018-04-17T01:04:09.705Z,8.22
2018-04-17T01:05:09.701Z,8.29
2018-04-17T01:06:09.698Z,8.33
2018-04-17T01:07:09.696Z,8.25
2018-04-17T01:08:09.695Z,8.35
2018-04-17T01:09:09.693Z,8.35
2018-04-17T01:10:09.690Z,8.45
2018-04-17T01:11:09.687Z,8.51
2018-04-17T01:12:09.686Z,8.54
2018-04-17T01:13:09.686Z,8.53
2018-04-17T01:14:09.682Z,8.57
2018-04-17T01:15:09.680Z,8.55
2018-04-17T01:16:09.677Z,8.55
2018-04-17T01:17:09.675Z,8.55
2018-04-17T01:18:09.675Z,8.53
2018-04-17T01:19:09.674Z,8.57
2018-04-17T01:20:09.670Z,8.54
2018-04-17T01:21:09.670Z,8.40
2018-04-17T01:22:09.668Z,8.28
2018-04-17T01:23:09.668Z,8.18
2018-04-17T01:24:09.662Z,8.14
2018-04-17T01:25:09.663Z,8.07
2018-04-17T01:26:09.658Z,8.04
2018-04-17T01:27:09.656Z,8.04
2018-04-17T01:28:09.653Z,7.97
2018-04-17T01:29:09.654Z,8.04
2018-04-17T01:30:09.653Z,7.97
2018-04-17T01:31:09.649Z,7.99
2018-04-17T01:32:09.647Z,8.07
2018-04-17T01:33:09.644Z,8.07
2018-04-17T01:34:09.641Z,7.99
2018-04-17T01:35:09.640Z,8.02
2018-04-17T01:36:09.637Z,8.03
2018-04-17T01:37:09.635Z,8.07
2018-04-17T01:38:09.634Z,8.10
2018-04-17T01:39:09.630Z,8.12
2018-04-17T01:40:09.628Z,8.07
2018-04-17T01:41:09.628Z,8.26
2018-04-17T01:42:09.626Z,8.20
2018-04-17T01:43:09.625Z,8.15
2018-04-17T01:44:09.619Z,8.22
2018-04-17T01:45:09.622Z,8.22
2018-04-17T01:46:09.619Z,8.20
2018-04-17T01:47:09.612Z,8.12
2018-04-17T01:48:09.612Z,8.12
2018-04-17T01:49:09.609Z,8.08
2018-04-17T01:50:09.611Z,8.14
2018-04-17T01:51:09.604Z,8.08
2018-04-17T01:52:09.604Z,8.11
2018-04-17T01:53:09.602Z,8.18
2018-04-17T01:54:09.601Z,8.04
2018-04-17T01:55:09.598Z,8.15
2018-04-17T01:56:09.598Z,8.04
2018-04-17T01:57:09.594Z,8.00
2018-04-17T01:58:09.593Z,8.03
2018-04-17T01:59:09.590Z,7.94
2018-04-17T02:00:09.590Z,7.89
2018-04-17T02:01:09.589Z,7.90
2018-04-17T02:02:09.586Z,7.93
2018-04-17T02:03:09.581Z,7.87
2018-04-17T02:04:09.580Z,7.81
2018-04-17T02:05:09.580Z,7.82
2018-04-17T02:06:09.580Z,7.82
2018-04-17T02:07:09.576Z,7.78
2018-04-17T02:08:09.574Z,7.78
2018-04-17T02:09:09.570Z,7.72
2018-04-17T02:10:09.567Z,7.78
2018-04-17T02:11:09.564Z,7.79
2018-04-17T02:12:09.562Z,7.84
2018-04-17T02:13:09.559Z,7.81
2018-04-17T02:14:09.559Z,7.90
2018-04-17T02:15:09.557Z,7.89
2018-04-17T02:16:09.556Z,7.87
2018-04-17T02:17:09.551Z,7.93
2018-04-17T02:18:09.550Z,7.99
2018-04-17T02:19:09.548Z,7.97
2018-04-17T02:20:09.545Z,7.94
2018-04-17T02:21:09.543Z,7.97
2018-04-17T02:22:09.540Z,7.94
2018-04-17T02:23:09.536Z,7.96
2018-04-17T02:24:09.535Z,7.97
2018-04-17T02:25:09.532Z,8.00
2018-04-17T02:26:09.532Z,8.00
2018-04-17T02:27:09.530Z,8.08
2018-04-17T02:28:09.525Z,8.02
2018-04-17T02:29:09.524Z,8.03
2018-04-17T02:30:09.524Z,8.14
2018-04-17T02:31:09.518Z,8.12
2018-04-17T02:32:09.516Z,8.07
2018-04-17T02:33:09.517Z,7.93
2018-04-17T02:34:09.520Z,7.84
2018-04-17T02:35:09.509Z,7.71
2018-04-17T02:36:09.508Z,7.67
2018-04-17T02:37:09.507Z,7.55
2018-04-17T02:38:09.508Z,7.53
2018-04-17T02:39:09.500Z,7.37
2018-04-17T02:40:09.502Z,7.45
2018-04-17T02:41:09.496Z,7.40
2018-04-17T02:42:09.495Z,7.40
2018-04-17T02:43:09.491Z,7.47
2018-04-17T02:44:09.490Z,7.50
2018-04-17T02:45:09.487Z,7.59
2018-04-17T02:46:09.485Z,7.53
2018-04-17T02:47:09.485Z,7.66
2018-04-17T02:48:09.480Z,7.63
2018-04-17T02:49:09.479Z,7.71
2018-04-17T02:50:09.474Z,7.72
2018-04-17T02:51:09.472Z,7.78
2018-04-17T02:52:09.479Z,7.81
2018-04-17T02:53:09.468Z,7.71
2018-04-17T02:54:09.464Z,7.75
2018-04-17T02:55:09.460Z,7.78
2018-04-17T02:56:09.459Z,7.78
2018-04-17T02:57:09.458Z,7.85
2018-04-17T02:58:09.453Z,7.84
2018-04-17T02:59:09.451Z,7.89
2018-04-17T03:00:09.448Z,7.81
2018-04-17T03:01:09.451Z,7.81
2018-04-17T03:02:09.444Z,7.85
2018-04-17T03:03:09.442Z,7.84
2018-04-17T03:04:09.437Z,7.79
2018-04-17T03:05:09.437Z,7.77
2018-04-17T03:06:09.436Z,7.78
2018-04-17T03:07:09.430Z,7.81
2018-04-17T03:08:09.431Z,7.85
2018-04-17T03:09:09.425Z,7.79
2018-04-17T03:10:09.428Z,7.93
2018-04-17T03:11:09.421Z,7.84
2018-04-17T03:12:09.418Z,7.87
2018-04-17T03:13:09.416Z,7.94
2018-04-17T03:14:09.421Z,7.94
2018-04-17T03:15:09.412Z,7.94
2018-04-17T03:16:09.411Z,7.99
2018-04-17T03:17:09.408Z,8.02
2018-04-17T03:18:09.406Z,7.99
2018-04-17T03:19:09.405Z,7.97
2018-04-17T03:20:09.401Z,8.11
2018-04-17T03:21:09.398Z,8.14
2018-04-17T03:22:09.399Z,8.17
2018-04-17T03:23:09.394Z,8.28
2018-04-17T03:24:09.393Z,8.25
2018-04-17T03:25:09.390Z,8.29
2018-04-17T03:26:09.388Z,8.35
2018-04-17T03:27:09.385Z,8.39
2018-04-17T03:28:09.385Z,8.35
2018-04-17T03:29:09.381Z,8.35
2018-04-17T03:30:09.381Z,8.35
2018-04-17T03:31:09.379Z,8.42
2018-04-17T03:32:09.375Z,8.47
2018-04-17T03:33:09.372Z,8.44
2018-04-17T03:34:09.373Z,8.50
2018-04-17T03:35:09.366Z,8.48
2018-04-17T03:36:09.395Z,8.48
2018-04-17T03:37:09.372Z,8.48
2018-04-17T03:38:09.362Z,8.44
2018-04-17T03:39:09.358Z,8.36
2018-04-17T03:40:09.358Z,8.32
2018-04-17T03:41:09.355Z,8.22
2018-04-17T03:42:09.355Z,8.29
2018-04-17T03:43:09.348Z,8.20
2018-04-17T03:44:09.348Z,8.17
2018-04-17T03:45:09.350Z,8.00
2018-04-17T03:46:09.347Z,7.97
2018-04-17T03:47:09.339Z,8.03
2018-04-17T03:48:09.340Z,8.04
2018-04-17T03:49:09.336Z,8.11
2018-04-17T03:50:09.335Z,8.00
2018-04-17T03:51:09.333Z,8.11
2018-04-17T03:52:09.335Z,8.20
2018-04-17T03:53:09.332Z,8.12
2018-04-17T03:54:09.325Z,8.11
2018-04-17T03:55:09.323Z,8.12
2018-04-17T03:56:09.323Z,8.22
2018-04-17T03:57:09.319Z,8.26
2018-04-17T03:58:09.321Z,8.29
2018-04-17T03:59:09.316Z,8.35
2018-04-17T04:00:09.312Z,8.35
2018-04-17T04:01:09.310Z,8.42
2018-04-17T04:02:09.320Z,8.39
2018-04-17T04:03:09.304Z,8.48
2018-04-17T04:04:09.303Z,8.48
2018-04-17T04:05:09.302Z,8.47
2018-04-17T04:06:09.302Z,8.44
2018-04-17T04:07:09.297Z,8.47
2018-04-17T04:08:09.296Z,8.45
2018-04-17T04:09:09.294Z,8.50
2018-04-17T04:10:09.296Z,8.40
2018-04-17T04:11:09.290Z,8.33
2018-04-17T04:12:09.290Z,8.26
2018-04-17T04:13:09.290Z,8.29
2018-04-17T04:14:09.287Z,8.26
2018-04-17T04:15:09.282Z,8.21
2018-04-17T04:16:09.298Z,8.30
2018-04-17T04:17:09.278Z,8.29
2018-04-17T04:18:09.274Z,8.32
2018-04-17T04:19:09.271Z,8.32
2018-04-17T04:20:09.272Z,8.35
2018-04-17T04:21:09.269Z,8.36
2018-04-17T04:22:09.293Z,8.45
2018-04-17T04:23:09.262Z,8.50
2018-04-17T04:24:09.260Z,8.58
2018-04-17T04:25:09.260Z,8.60
2018-04-17T04:26:09.257Z,8.63
2018-04-17T04:27:09.254Z,8.65
2018-04-17T04:28:09.251Z,8.72
2018-04-17T04:29:09.253Z,8.76
2018-04-17T04:30:09.249Z,8.69
2018-04-17T04:31:09.250Z,8.75
2018-04-17T04:32:09.244Z,8.73
2018-04-17T04:33:09.247Z,8.66
2018-04-17T04:34:09.241Z,8.60
2018-04-17T04:35:09.240Z,8.60
2018-04-17T04:36:09.239Z,8.45
2018-04-17T04:37:09.234Z,8.50
2018-04-17T04:38:09.235Z,8.54
2018-04-17T04:39:09.230Z,8.55
2018-04-17T04:40:09.229Z,8.53
2018-04-17T04:41:09.225Z,8.60
2018-04-17T04:42:09.227Z,8.60
2018-04-17T04:43:09.223Z,8.58
2018-04-17T04:44:09.223Z,8.75
2018-04-17T04:45:09.224Z,8.72
2018-04-17T04:46:09.219Z,8.68
2018-04-17T04:47:09.214Z,8.83
2018-04-17T04:48:09.212Z,8.81
2018-04-17T04:49:09.220Z,8.84
2018-04-17T04:50:09.210Z,8.93
2018-04-17T04:51:09.209Z,8.97
2018-04-17T04:52:09.223Z,8.93
2018-04-17T04:53:09.207Z,8.87
2018-04-17T04:54:09.201Z,8.99
2018-04-17T04:55:09.198Z,8.97
2018-04-17T04:56:09.195Z,8.94
2018-04-17T04:57:09.290Z,8.97
2018-04-17T04:58:09.192Z,9.02
2018-04-17T04:59:09.192Z,9.01
2018-04-17T05:00:09.189Z,9.05
2018-04-17T05:01:09.187Z,8.97
2018-04-17T05:02:09.189Z,9.01
2018-04-17T05:03:09.186Z,9.02
2018-04-17T05:04:09.182Z,8.99
2018-04-17T05:05:09.181Z,9.02
2018-04-17T05:06:10.019Z,9.10
2018-04-17T05:07:09.179Z,9.13
2018-04-17T05:08:09.174Z,9.09
2018-04-17T05:09:09.186Z,9.13
2018-04-17T05:10:09.179Z,9.23
2018-04-17T05:11:09.174Z,9.15
2018-04-17T05:12:09.169Z,9.28
2018-04-17T05:13:09.172Z,9.27
2018-04-17T05:14:09.168Z,9.28
2018-04-17T05:15:09.164Z,9.23
2018-04-17T05:16:09.170Z,9.35
2018-04-17T05:17:09.160Z,9.45
2018-04-17T05:18:09.161Z,9.43
2018-04-17T05:19:09.156Z,9.46
2018-04-17T05:20:09.159Z,9.42
2018-04-17T05:21:09.155Z,9.45
2018-04-17T05:22:09.182Z,9.42
2018-04-17T05:23:09.155Z,9.43
2018-04-17T05:24:09.151Z,9.45
2018-04-17T05:25:09.148Z,9.35
2018-04-17T05:26:09.159Z,9.52
2018-04-17T05:27:09.145Z,9.45
2018-04-17T05:28:09.171Z,9.42
2018-04-17T05:29:09.144Z,9.46
2018-04-17T05:30:09.143Z,9.39
2018-04-17T05:31:09.138Z,9.43
2018-04-17T05:32:09.138Z,9.48
2018-04-17T05:33:09.140Z,9.35
2018-04-17T05:34:09.138Z,9.45
2018-04-17T05:35:09.151Z,9.56
2018-04-17T05:36:09.132Z,9.57
2018-04-17T05:37:09.137Z,9.58
2018-04-17T05:38:09.131Z,9.60
2018-04-17T05:39:09.129Z,9.71
2018-04-17T05:40:09.140Z,9.71
2018-04-17T05:41:09.126Z,9.70
2018-04-17T05:42:09.123Z,9.71
2018-04-17T05:43:09.122Z,9.82
2018-04-17T05:44:09.122Z,9.93
2018-04-17T05:45:09.120Z,9.88
2018-04-17T05:46:09.120Z,10.01
2018-04-17T05:47:09.120Z,10.00
2018-04-17T05:48:09.103Z,10.10
2018-04-17T05:49:09.114Z,10.09
2018-04-17T05:50:10.034Z,10.26
2018-04-17T05:51:09.102Z,10.17
2018-04-17T05:52:09.112Z,10.25
2018-04-17T05:53:09.097Z,10.32
2018-04-17T05:54:09.100Z,10.44
2018-04-17T05:55:09.096Z,10.53
2018-04-17T05:56:09.105Z,10.53
2018-04-17T05:57:09.092Z,10.60
2018-04-17T05:58:09.092Z,10.52
2018-04-17T05:59:09.098Z,10.51
2018-04-17T06:00:09.094Z,10.52
2018-04-17T06:01:09.108Z,10.52
2018-04-17T06:02:09.088Z,10.63
2018-04-17T06:03:09.105Z,10.66
2018-04-17T06:04:09.089Z,10.65
2018-04-17T06:05:09.096Z,10.71
2018-04-17T06:06:09.087Z,10.80
2018-04-17T06:07:09.088Z,10.80
2018-04-17T06:08:09.095Z,10.84
2018-04-17T06:09:09.083Z,10.86
2018-04-17T06:10:09.098Z,10.94
2018-04-17T06:11:09.084Z,10.94
2018-04-17T06:12:09.082Z,11.06
2018-04-17T06:13:09.083Z,11.06
2018-04-17T06:14:09.080Z,11.07
2018-04-17T06:15:09.080Z,11.19
2018-04-17T06:16:09.082Z,11.10
2018-04-17T06:17:09.081Z,11.24
2018-04-17T06:18:09.080Z,11.21
2018-04-17T06:19:09.079Z,11.34
2018-04-17T06:20:09.078Z,11.39
2018-04-17T06:21:09.077Z,11.31
2018-04-17T06:22:09.082Z,11.46
2018-04-17T06:23:09.078Z,11.49
2018-04-17T06:24:09.076Z,11.56
2018-04-17T06:25:09.093Z,11.52
2018-04-17T06:26:09.129Z,11.57
2018-04-17T06:27:09.077Z,11.65
2018-04-17T06:28:09.078Z,11.67
2018-04-17T06:29:09.080Z,11.65
2018-04-17T06:30:09.075Z,11.75
2018-04-17T06:31:09.092Z,11.72
2018-04-17T06:32:09.074Z,11.82
2018-04-17T06:33:09.074Z,11.82
2018-04-17T06:34:09.080Z,11.80
2018-04-17T06:35:09.139Z,11.99
2018-04-17T06:36:09.080Z,12.13
2018-04-17T06:37:09.075Z,12.27
2018-04-17T06:38:09.077Z,12.96
2018-04-17T06:39:09.085Z,14.06
2018-04-17T06:40:09.079Z,14.95
2018-04-17T06:41:09.076Z,15.61
2018-04-17T06:42:09.149Z,16.03
2018-04-17T06:43:09.080Z,15.92
2018-04-17T06:44:09.082Z,16.12
2018-04-17T06:45:09.166Z,16.63
2018-04-17T06:46:09.085Z,17.00
2018-04-17T06:47:09.082Z,17.32
2018-04-17T06:48:09.086Z,17.41
2018-04-17T06:49:09.085Z,17.41
2018-04-17T06:50:09.099Z,17.54
2018-04-17T06:51:09.089Z,16.96
2018-04-17T06:52:09.093Z,16.41
2018-04-17T06:53:09.100Z,16.86
2018-04-17T06:54:09.103Z,16.52
2018-04-17T06:55:09.107Z,16.30
2018-04-17T06:56:09.108Z,16.27
2018-04-17T06:57:09.113Z,15.86
2018-04-17T06:58:09.152Z,15.81
2018-04-17T06:59:09.126Z,15.56
2018-04-17T07:00:09.121Z,15.42
2018-04-17T07:01:09.125Z,15.21
2018-04-17T07:02:09.129Z,14.99
2018-04-17T07:03:09.150Z,14.91
2018-04-17T07:04:09.140Z,14.78
2018-04-17T07:05:09.149Z,14.69
2018-04-17T07:06:09.148Z,14.62
2018-04-17T07:07:09.148Z,14.68
2018-04-17T07:08:09.154Z,14.84
2018-04-17T07:09:09.155Z,14.62
2018-04-17T07:10:09.179Z,14.62
2018-04-17T07:11:09.164Z,14.62
2018-04-17T07:12:09.166Z,14.83
2018-04-17T07:13:09.169Z,15.31
2018-04-17T07:14:09.187Z,15.38
2018-04-17T07:15:09.200Z,15.11
2018-04-17T07:16:09.207Z,15.17
2018-04-17T07:17:09.209Z,15.20
2018-04-17T07:18:09.218Z,15.02
2018-04-17T07:19:09.219Z,15.42
2018-04-17T07:20:09.198Z,15.52
2018-04-17T07:21:09.233Z,15.42
2018-04-17T07:22:09.204Z,15.46
2018-04-17T07:23:09.208Z,15.36
2018-04-17T07:24:09.208Z,15.19
2018-04-17T07:25:09.213Z,15.21
2018-04-17T07:26:09.218Z,15.52
2018-04-17T07:27:09.220Z,15.36
2018-04-17T07:28:09.222Z,15.31
2018-04-17T07:29:09.226Z,15.09
2018-04-17T07:30:09.235Z,15.01
2018-04-17T07:31:09.232Z,15.03
2018-04-17T07:32:09.236Z,15.15
2018-04-17T07:33:09.242Z,14.98
2018-04-17T07:34:09.246Z,15.26
2018-04-17T07:35:09.247Z,15.42
2018-04-17T07:36:09.252Z,16.37
2018-04-17T07:37:09.261Z,17.03
2018-04-17T07:38:09.260Z,17.67
2018-04-17T07:39:09.264Z,18.42
2018-04-17T07:40:09.267Z,18.92
2018-04-17T07:41:09.289Z,19.51
2018-04-17T07:42:09.283Z,19.72
2018-04-17T07:43:09.302Z,19.65
2018-04-17T07:44:09.289Z,19.70
2018-04-17T07:45:09.295Z,19.72
2018-04-17T07:46:09.303Z,19.70
2018-04-17T07:47:09.316Z,19.86
2018-04-17T07:48:09.323Z,19.90
2018-04-17T07:49:09.317Z,20.23
2018-04-17T07:50:09.324Z,20.64
2018-04-17T07:51:09.325Z,20.00
2018-04-17T07:52:09.341Z,20.38
2018-04-17T07:53:09.339Z,20.77
2018-04-17T07:54:09.348Z,20.90
2018-04-17T07:55:09.367Z,20.87
2018-04-17T07:56:09.382Z,20.96
2018-04-17T07:57:09.369Z,20.84
2018-04-17T07:58:09.389Z,20.72
2018-04-17T07:59:09.380Z,20.65
2018-04-17T08:00:09.388Z,20.27
2018-04-17T08:01:09.398Z,20.03
2018-04-17T08:02:09.405Z,19.75
2018-04-17T08:03:09.410Z,19.79
2018-04-17T08:04:09.416Z,19.76
2018-04-17T08:05:09.428Z,19.68
2018-04-17T08:06:09.466Z,19.60
2018-04-17T08:07:09.444Z,19.47
2018-04-17T08:08:09.484Z,18.91
2018-04-17T08:09:09.462Z,18.64
2018-04-17T08:10:09.470Z,18.40
2018-04-17T08:11:09.515Z,18.36
2018-04-17T08:12:09.485Z,18.18
2018-04-17T08:13:10.075Z,18.54
2018-04-17T08:14:09.532Z,18.74
2018-04-17T08:15:09.516Z,18.99
2018-04-17T08:16:09.525Z,19.23
2018-04-17T08:17:09.546Z,19.20
2018-04-17T08:18:09.574Z,19.31
2018-04-17T08:19:09.601Z,19.20
2018-04-17T08:20:09.590Z,19.15
2018-04-17T08:21:09.615Z,18.99
2018-04-17T08:22:09.608Z,18.82
2018-04-17T08:23:09.592Z,18.83
2018-04-17T08:24:09.626Z,18.82
2018-04-17T08:25:09.613Z,18.77
2018-04-17T08:26:09.661Z,18.79
2018-04-17T08:27:09.663Z,18.76
2018-04-17T08:28:09.672Z,18.74
2018-04-17T08:29:09.655Z,18.67
2018-04-17T08:30:09.658Z,18.74
2018-04-17T08:31:09.668Z,18.91
2018-04-17T08:32:09.650Z,19.17
2018-04-17T08:33:09.667Z,19.33
2018-04-17T08:34:09.694Z,19.23
2018-04-17T08:35:09.711Z,19.40
2018-04-17T08:36:09.687Z,19.57
2018-04-17T08:37:09.687Z,19.58
2018-04-17T08:38:09.722Z,19.43
2018-04-17T08:39:09.783Z,19.47
2018-04-17T08:40:09.791Z,19.58
2018-04-17T08:41:09.713Z,19.23
2018-04-17T08:42:09.717Z,19.15
2018-04-17T08:43:09.725Z,19.36
2018-04-17T08:44:09.750Z,19.31
2018-04-17T08:45:09.741Z,19.51
2018-04-17T08:46:09.750Z,19.55
2018-04-17T08:47:09.779Z,19.46
2018-04-17T08:48:09.763Z,19.61
2018-04-17T08:49:09.770Z,19.46
2018-04-17T08:50:09.774Z,19.47
2018-04-17T08:51:09.800Z,19.73
2018-04-17T08:52:09.787Z,19.80
2018-04-17T08:53:09.840Z,19.57
2018-04-17T08:54:09.807Z,19.54
2018-04-17T08:55:09.865Z,19.46
2018-04-17T08:56:09.880Z,19.50
2018-04-17T08:57:09.850Z,19.53
2018-04-17T08:58:09.841Z,19.58
2018-04-17T08:59:09.853Z,19.68
2018-04-17T09:00:09.847Z,19.84
2018-04-17T09:01:09.865Z,19.76
2018-04-17T09:02:09.872Z,20.00
2018-04-17T09:03:09.870Z,20.12
2018-04-17T09:04:09.876Z,19.97
2018-04-17T09:05:09.941Z,19.65
2018-04-17T09:06:09.964Z,19.76
2018-04-17T09:07:09.919Z,19.88
2018-04-17T09:08:09.934Z,19.95
2018-04-17T09:09:09.907Z,20.13
2018-04-17T09:10:09.912Z,20.21
2018-04-17T09:11:09.930Z,19.95
2018-04-17T09:12:09.988Z,20.00
2018-04-17T09:13:10.008Z,20.21
2018-04-17T09:14:09.939Z,20.25
2018-04-17T09:15:09.946Z,20.15
2018-04-17T09:16:09.954Z,19.65
2018-04-17T09:17:10.032Z,19.76
2018-04-17T09:18:09.966Z,19.72
2018-04-17T09:19:09.990Z,19.58
2018-04-17T09:20:09.981Z,19.79
2018-04-17T09:21:09.997Z,19.84
2018-04-17T09:22:10.005Z,20.08
2018-04-17T09:23:10.035Z,20.30
2018-04-17T09:24:10.057Z,20.54
2018-04-17T09:25:10.100Z,20.68
2018-04-17T09:26:10.036Z,20.95
2018-04-17T09:27:10.092Z,20.98
2018-04-17T09:28:10.065Z,21.06
2018-04-17T09:29:10.057Z,21.14
2018-04-17T09:30:10.076Z,21.19
2018-04-17T09:31:10.130Z,21.42
2018-04-17T09:32:10.089Z,21.36
2018-04-17T09:33:10.149Z,21.09
2018-04-17T09:34:10.117Z,20.93
2018-04-17T09:35:10.341Z,20.84
2018-04-17T09:36:10.163Z,20.80
2018-04-17T09:37:10.144Z,20.89
2018-04-17T09:38:10.142Z,21.05
2018-04-17T09:39:10.172Z,21.19
2018-04-17T09:40:10.134Z,20.95
2018-04-17T09:41:10.188Z,20.95
2018-04-17T09:42:10.212Z,20.83
2018-04-17T09:43:10.189Z,20.80
2018-04-17T09:44:10.204Z,20.66
2018-04-17T09:45:10.175Z,20.50
2018-04-17T09:46:10.352Z,20.64
2018-04-17T09:47:10.168Z,20.58
2018-04-17T09:48:10.218Z,20.83
2018-04-17T09:49:10.182Z,20.77
2018-04-17T09:50:10.203Z,20.64
2018-04-17T09:51:10.217Z,20.95
2018-04-17T09:52:10.226Z,21.23
2018-04-17T09:53:10.212Z,21.30
2018-04-17T09:54:10.221Z,21.17
2018-04-17T09:55:10.256Z,21.35
2018-04-17T09:56:10.238Z,21.54
2018-04-17T09:57:10.240Z,21.76
2018-04-17T09:58:10.256Z,21.95
2018-04-17T09:59:10.254Z,21.78
2018-04-17T10:00:10.263Z,21.44
2018-04-17T10:01:10.284Z,21.60
2018-04-17T10:02:10.305Z,21.50
2018-04-17T10:03:10.432Z,21.26
2018-04-17T10:04:10.294Z,20.96
2018-04-17T10:05:10.311Z,20.99
2018-04-17T10:06:10.316Z,21.06
2018-04-17T10:07:10.327Z,21.23
2018-04-17T10:08:10.325Z,21.24
2018-04-17T10:09:10.329Z,21.13
2018-04-17T10:10:10.336Z,21.16
2018-04-17T10:11:10.343Z,21.14
2018-04-17T10:12:10.351Z,20.93
2018-04-17T10:13:10.358Z,20.68
2018-04-17T10:14:10.365Z,20.64
2018-04-17T10:15:10.370Z,20.61
2018-04-17T10:16:10.377Z,20.51
2018-04-17T10:17:10.449Z,20.81
2018-04-17T10:18:10.394Z,21.02
2018-04-17T10:19:10.400Z,21.32
2018-04-17T10:20:10.406Z,21.44
2018-04-17T10:21:10.417Z,21.42
2018-04-17T10:22:10.424Z,21.27
2018-04-17T10:23:10.430Z,20.89
2018-04-17T10:24:10.435Z,21.09
2018-04-17T10:25:10.453Z,20.93
2018-04-17T10:26:10.458Z,20.77
2018-04-17T10:27:10.477Z,20.86
2018-04-17T10:28:10.463Z,20.93
2018-04-17T10:29:10.470Z,20.69
2018-04-17T10:30:10.481Z,20.62
2018-04-17T10:31:10.500Z,20.62
2018-04-17T10:32:10.491Z,20.62
2018-04-17T10:33:10.499Z,20.51
2018-04-17T10:34:10.508Z,20.39
2018-04-17T10:35:10.512Z,20.23
2018-04-17T10:36:10.524Z,20.09
2018-04-17T10:37:10.526Z,20.00
2018-04-17T10:38:10.533Z,19.84
2018-04-17T10:39:10.555Z,20.09
2018-04-17T10:40:10.546Z,20.21
2018-04-17T10:41:10.560Z,20.62
2018-04-17T10:42:10.564Z,20.95
2018-04-17T10:43:11.163Z,21.01
2018-04-17T10:44:11.106Z,21.19
2018-04-17T10:45:11.138Z,21.57
2018-04-17T10:46:11.151Z,21.54
2018-04-17T10:47:11.102Z,21.39
2018-04-17T10:48:11.220Z,21.17
2018-04-17T10:49:11.087Z,21.45
2018-04-17T10:50:11.094Z,21.59
2018-04-17T10:51:11.088Z,21.83
2018-04-17T10:52:11.129Z,22.01
2018-04-17T10:53:11.101Z,21.78
2018-04-17T10:54:11.084Z,21.42
2018-04-17T10:55:11.108Z,21.27
2018-04-17T10:56:11.105Z,21.20
2018-04-17T10:57:11.112Z,21.19
2018-04-17T10:58:11.132Z,20.96
2018-04-17T10:59:11.599Z,20.99
2018-04-17T11:00:11.094Z,21.06
2018-04-17T11:01:11.086Z,21.27
2018-04-17T11:02:11.118Z,21.57
2018-04-17T11:03:11.085Z,21.71
2018-04-17T11:04:11.087Z,21.75
2018-04-17T11:05:11.126Z,21.79
2018-04-17T11:06:11.114Z,21.79
2018-04-17T11:07:11.099Z,21.91
2018-04-17T11:08:11.094Z,21.71
2018-04-17T11:09:11.148Z,21.66
2018-04-17T11:10:11.089Z,21.42
2018-04-17T11:11:11.094Z,21.56
2018-04-17T11:12:11.087Z,21.38
2018-04-17T11:13:11.085Z,21.21
2018-04-17T11:14:11.079Z,21.05
2018-04-17T11:15:11.127Z,20.98
2018-04-17T11:16:11.097Z,21.11
2018-04-17T11:17:11.085Z,21.42
2018-04-17T11:18:11.078Z,21.67
2018-04-17T11:19:11.110Z,21.53
2018-04-17T11:20:11.872Z,21.46
2018-04-17T11:21:11.081Z,21.57
2018-04-17T11:22:11.098Z,21.67
2018-04-17T11:23:11.122Z,21.74
2018-04-17T11:24:11.101Z,22.07
2018-04-17T11:25:11.115Z,22.07
2018-04-17T11:26:11.100Z,22.10
2018-04-17T11:27:11.113Z,22.31
2018-04-17T11:28:11.073Z,22.20
2018-04-17T11:29:11.082Z,22.14
2018-04-17T11:30:11.065Z,21.97
2018-04-17T11:31:11.065Z,21.66
2018-04-17T11:32:11.088Z,21.32
2018-04-17T11:33:11.064Z,21.02
2018-04-17T11:34:11.083Z,20.84
2018-04-17T11:35:11.006Z,20.76
2018-04-17T11:36:11.157Z,20.72
2018-04-17T11:37:11.074Z,20.91
2018-04-17T11:38:11.104Z,20.90
2018-04-17T11:39:11.114Z,20.91
2018-04-17T11:40:11.137Z,20.99
2018-04-17T11:41:11.126Z,21.08
2018-04-17T11:42:11.098Z,21.17
2018-04-17T11:43:13.055Z,21.32
2018-04-17T11:44:11.014Z,21.57
2018-04-17T11:45:11.209Z,21.97
2018-04-17T11:46:11.229Z,22.12
2018-04-17T11:47:11.242Z,22.49
2018-04-17T11:48:11.198Z,22.74
2018-04-17T11:49:11.263Z,23.01
2018-04-17T11:50:11.101Z,23.05
2018-04-17T11:51:11.185Z,23.29
2018-04-17T11:52:11.112Z,23.53
2018-04-17T11:53:11.094Z,23.23
2018-04-17T11:54:11.166Z,23.11
2018-04-17T11:55:11.121Z,22.71
2018-04-17T11:56:12.667Z,22.31
2018-04-17T11:57:11.161Z,22.44
2018-04-17T11:58:11.134Z,22.50
2018-04-17T11:59:11.206Z,22.43
2018-04-17T12:00:11.183Z,22.32
2018-04-17T12:01:11.169Z,22.41
2018-04-17T12:02:11.288Z,22.53
2018-04-17T12:03:11.150Z,22.50
2018-04-17T12:04:11.133Z,22.49
2018-04-17T12:05:11.182Z,22.54
2018-04-17T12:06:11.180Z,22.57
2018-04-17T12:07:11.151Z,22.67
2018-04-17T12:08:11.157Z,22.60
2018-04-17T12:09:11.170Z,22.44
2018-04-17T12:10:11.172Z,22.19
2018-04-17T12:11:11.199Z,22.07
2018-04-17T12:12:11.762Z,21.82
2018-04-17T12:13:11.220Z,21.63
2018-04-17T12:14:11.438Z,21.57
2018-04-17T12:15:12.253Z,21.53
2018-04-17T12:16:11.225Z,21.14
2018-04-17T12:17:11.220Z,21.06
2018-04-17T12:18:11.244Z,21.11
2018-04-17T12:19:11.236Z,21.11
2018-04-17T12:20:11.242Z,21.14
2018-04-17T12:21:11.488Z,21.09
2018-04-17T12:22:11.282Z,21.17
2018-04-17T12:23:11.273Z,21.20
2018-04-17T12:24:11.280Z,21.11
2018-04-17T12:25:11.297Z,21.21
2018-04-17T12:26:11.281Z,21.30
2018-04-17T12:27:11.367Z,21.53
2018-04-17T12:28:11.362Z,21.78
2018-04-17T12:29:11.302Z,21.97
2018-04-17T12:30:11.311Z,22.14
2018-04-17T12:31:11.317Z,22.29
2018-04-17T12:32:11.355Z,22.34
2018-04-17T12:33:11.439Z,22.34
2018-04-17T12:34:11.461Z,22.39
2018-04-17T12:35:11.346Z,22.53
2018-04-17T12:36:11.348Z,22.59
2018-04-17T12:37:11.382Z,22.52
2018-04-17T12:38:11.364Z,22.32
2018-04-17T12:39:11.372Z,22.14
2018-04-17T12:40:11.394Z,22.19
2018-04-17T12:41:11.392Z,21.98
2018-04-17T12:42:11.463Z,22.13
2018-04-17T12:43:11.397Z,21.95
2018-04-17T12:44:11.417Z,21.72
2018-04-17T12:45:11.411Z,21.83
2018-04-17T12:46:11.437Z,21.76
2018-04-17T12:47:11.430Z,21.85
2018-04-17T12:48:11.433Z,21.75
2018-04-17T12:49:11.468Z,21.41
2018-04-17T12:50:11.460Z,21.35
2018-04-17T12:51:11.453Z,21.38
2018-04-17T12:52:11.468Z,21.56
2018-04-17T12:53:11.464Z,21.54
2018-04-17T12:54:11.473Z,21.54
2018-04-17T12:55:11.481Z,21.53
2018-04-17T12:56:11.508Z,21.41
2018-04-17T12:57:11.494Z,21.27
2018-04-17T12:58:11.499Z,21.13
2018-04-17T12:59:11.531Z,20.98
2018-04-17T13:00:11.515Z,20.96
2018-04-17T13:01:11.518Z,21.01
2018-04-17T13:02:11.540Z,20.95
2018-04-17T13:03:11.553Z,20.93